Mekoryuk Airport
PAMY : now visible

Aeroporto :











RITROVATECI SU...

 
LOGIN :

Iscrizione | Disclaimer

   EN    FR    IT 

 









Sommario :    VFR   VFR Marginale   IFR   IFR Intensivo   IFR Molto Intensivo
Visibilità : 
Base nubi : 
>= 8 km
>= 3000ft
5 / 8 km
1000 / 3000 ft
1500m / 5 km
500 / 1000 ft
800 / 1500m
200 / 500 ft
< 800m
< 200 ft
Simboli :   Temporali  Nebbia  Neve Forte  Precipitazioni Forti  Vento > 20 kt






- Altitudine del aeroporto : 48 ft
- Codice IATA : MYU


PAMY - Mekoryuk

ULTIMO METAR :
  • 011856Z AUTO 03004KT 10SM FEW043 SCT050 SCT120 08/06 A2954 RMK AO2 RAB02E17 SLP003 P0000 T00830061

METARs OBSOLETI :
  • 011756Z AUTO 00000KT 10SM BKN043 OVC070 07/06 A2954 RMK AO2 SLP003 T00720056 10072 20017 51007
  • 011656Z AUTO 01003KT 10SM FEW002 BKN043 06/05 A2953 RMK AO2 SLP999 T00610050

TAF N/A
FIR PAZA / America del Nord



MetMap, La meteo Aeronautica in un colpo d'occhio ! - Copyright ORBIFLY Dicembre 2007 - Disclaimer

ORBIFLY MET'MAP TEAM :

Programmazione e sviluppo : Alexandra Zaïnal
Concezione : Baudouin d'Aumeries
Aiuto per la programmazione : Marc-Olivier Méhu
Supporto tecnico e logistico : Manuel Goepfert
Aiuto per la traduzione : Arnaldo La Scala

Contatto : metmap@orbifly.com




FONTI E CREDITI :

   NOAA       Earth
Advisory